createdAt,value
2023-01-19T00:02:04.238Z,12.35
2023-01-19T00:05:06.136Z,11.63
2023-01-19T00:08:14.751Z,13.32
2023-01-19T00:11:19.377Z,13.10
2023-01-19T00:14:21.080Z,12.68
2023-01-19T00:17:22.672Z,12.25
2023-01-19T00:20:24.096Z,12.80
2023-01-19T00:23:25.935Z,11.43
2023-01-19T00:26:27.438Z,12.73
2023-01-19T00:29:33.368Z,12.93
2023-01-19T00:32:34.971Z,12.98
2023-01-19T00:35:36.773Z,12.57
2023-01-19T00:38:38.976Z,12.85
2023-01-19T00:41:59.097Z,13.25
2023-01-19T00:45:00.589Z,12.68
2023-01-19T00:48:02.359Z,13.93
2023-01-19T00:51:03.946Z,12.90
2023-01-19T00:54:05.433Z,13.37
2023-01-19T00:57:07.017Z,13.90
2023-01-19T01:00:11.946Z,14.23
2023-01-19T01:03:13.399Z,13.88
2023-01-19T01:06:14.920Z,14.03
2023-01-19T01:09:16.388Z,13.40
2023-01-19T01:12:17.919Z,15.13
2023-01-19T01:15:19.788Z,14.43
2023-01-19T01:18:21.925Z,14.32
2023-01-19T01:21:23.793Z,13.70
2023-01-19T01:24:25.241Z,14.23
2023-01-19T01:27:26.651Z,13.67
2023-01-19T01:30:28.105Z,14.27
2023-01-19T01:33:40.737Z,14.23
2023-01-19T01:36:43.566Z,13.60
2023-01-19T01:39:45.018Z,13.57
2023-01-19T01:42:46.689Z,14.87
2023-01-19T01:45:48.398Z,14.73
2023-01-19T01:48:53.914Z,14.43
2023-01-19T01:51:55.409Z,14.05
2023-01-19T01:54:58.122Z,14.27
2023-01-19T01:58:03.746Z,15.18
2023-01-19T02:01:25.432Z,13.77
2023-01-19T02:04:31.819Z,14.25
2023-01-19T02:08:04.318Z,13.57
2023-01-19T02:11:25.139Z,13.82
2023-01-19T02:14:26.598Z,13.43
2023-01-19T02:17:28.315Z,14.63
2023-01-19T02:20:33.513Z,14.25
2023-01-19T02:23:40.550Z,13.50
2023-01-19T02:26:46.862Z,15.02
2023-01-19T02:29:48.519Z,14.23
2023-01-19T02:32:50.210Z,14.40
2023-01-19T02:35:54.573Z,15.10
2023-01-19T02:38:57.855Z,14.45
2023-01-19T02:42:04.374Z,13.88
2023-01-19T02:45:09.500Z,14.07
2023-01-19T02:48:11.332Z,14.52
2023-01-19T02:51:21.076Z,13.93
2023-01-19T02:54:49.176Z,13.50
2023-01-19T02:58:10.334Z,14.20
2023-01-19T03:01:56.103Z,14.30
2023-01-19T03:05:14.150Z,13.32
2023-01-19T03:08:39.867Z,14.10
2023-01-19T03:11:46.839Z,13.18
2023-01-19T03:14:48.944Z,12.52
2023-01-19T03:17:52.179Z,13.25
2023-01-19T03:20:57.851Z,12.65
2023-01-19T03:24:03.137Z,13.00
2023-01-19T03:27:10.993Z,14.38
2023-01-19T03:30:24.135Z,12.90
2023-01-19T03:33:30.703Z,12.60
2023-01-19T03:36:37.011Z,14.45
2023-01-19T03:39:38.515Z,14.82
2023-01-19T03:42:41.088Z,13.33
2023-01-19T03:45:43.209Z,13.57
2023-01-19T03:48:46.062Z,13.18
2023-01-19T03:51:47.675Z,13.02
2023-01-19T03:54:49.217Z,13.52
2023-01-19T03:57:50.649Z,12.33
2023-01-19T04:00:52.508Z,12.82
2023-01-19T04:03:54.278Z,13.05
2023-01-19T04:06:55.748Z,12.52
2023-01-19T04:09:57.210Z,12.37
2023-01-19T04:13:00.683Z,12.75
2023-01-19T04:16:04.016Z,13.35
2023-01-19T04:19:05.463Z,13.73
2023-01-19T04:22:06.929Z,12.97
2023-01-19T04:25:09.672Z,13.70
2023-01-19T04:28:11.721Z,14.60
2023-01-19T04:31:13.295Z,13.40
2023-01-19T04:34:14.804Z,12.13
2023-01-19T04:37:16.227Z,13.57
2023-01-19T04:40:17.809Z,12.00
2023-01-19T04:43:20.536Z,12.18
2023-01-19T04:46:22.002Z,11.60
2023-01-19T04:49:23.921Z,11.50
2023-01-19T04:52:25.586Z,12.50
2023-01-19T04:55:27.175Z,13.30
2023-01-19T04:58:28.629Z,14.20
2023-01-19T05:01:30.238Z,13.83
2023-01-19T05:04:32.009Z,12.98
2023-01-19T05:07:33.526Z,14.35
2023-01-19T05:10:36.524Z,12.73
2023-01-19T05:13:38.018Z,12.52
2023-01-19T05:16:39.518Z,12.23
2023-01-19T05:19:40.959Z,13.20
2023-01-19T05:22:42.522Z,12.20
2023-01-19T05:25:44.537Z,13.03
2023-01-19T05:28:46.043Z,13.32
2023-01-19T05:31:47.589Z,12.10
2023-01-19T05:34:49.079Z,12.23
2023-01-19T05:37:50.832Z,11.83
2023-01-19T05:40:58.063Z,11.60
2023-01-19T05:43:59.544Z,10.93
2023-01-19T05:47:01.072Z,11.97
2023-01-19T05:50:02.654Z,11.97
2023-01-19T05:53:04.433Z,12.75
2023-01-19T05:56:11.372Z,14.35
2023-01-19T05:59:12.860Z,12.73
2023-01-19T06:02:14.529Z,12.87
2023-01-19T06:05:16.945Z,12.57
2023-01-19T06:11:20.943Z,13.80
2023-01-19T06:17:24.160Z,12.95
2023-01-19T06:20:25.656Z,12.40
2023-01-19T06:23:32.426Z,11.57
2023-01-19T06:26:34.020Z,10.77
2023-01-19T06:29:35.549Z,11.38
2023-01-19T06:32:37.284Z,12.00
2023-01-19T06:35:38.736Z,11.30
2023-01-19T06:38:40.311Z,10.73
2023-01-19T06:41:41.963Z,10.20
2023-01-19T06:44:47.401Z,10.63
2023-01-19T06:47:48.942Z,10.55
2023-01-19T06:50:50.538Z,10.63
2023-01-19T06:53:51.979Z,12.02
2023-01-19T06:56:53.395Z,11.38
2023-01-19T06:59:54.865Z,11.68
2023-01-19T07:02:56.578Z,10.50
2023-01-19T07:06:00.215Z,10.65
2023-01-19T07:09:07.016Z,10.75
2023-01-19T07:12:09.300Z,10.90
2023-01-19T07:18:13.201Z,11.43
2023-01-19T07:21:15.349Z,11.13
2023-01-19T07:24:16.848Z,11.48
2023-01-19T07:27:18.346Z,12.67
2023-01-19T07:30:19.874Z,12.07
2023-01-19T07:33:28.692Z,11.37
2023-01-19T07:36:30.335Z,11.27
2023-01-19T07:39:32.244Z,12.65
2023-01-19T07:42:33.730Z,11.93
2023-01-19T07:45:36.088Z,12.57
2023-01-19T07:51:39.130Z,12.00
2023-01-19T07:54:40.599Z,11.00
2023-01-19T07:57:42.129Z,11.80
2023-01-19T08:00:43.647Z,11.97
2023-01-19T08:03:47.163Z,12.10
2023-01-19T08:06:48.727Z,12.75
2023-01-19T08:09:50.188Z,13.27
2023-01-19T08:12:55.479Z,12.90
2023-01-19T08:15:57.002Z,10.98
2023-01-19T08:18:58.514Z,11.38
2023-01-19T08:22:00.216Z,11.00
2023-01-19T08:25:01.740Z,10.93
2023-01-19T08:28:05.569Z,12.17
2023-01-19T08:31:19.177Z,14.60
2023-01-19T08:34:21.761Z,11.90
2023-01-19T08:37:24.750Z,12.20
2023-01-19T08:40:26.644Z,12.60
2023-01-19T08:43:28.118Z,11.13
2023-01-19T08:46:29.678Z,12.27
2023-01-19T08:49:31.362Z,11.30
2023-01-19T08:52:32.789Z,12.68
2023-01-19T08:55:37.546Z,11.02
2023-01-19T08:58:43.872Z,11.32
2023-01-19T09:01:45.553Z,11.60
2023-01-19T09:04:47.091Z,11.00
2023-01-19T09:07:48.557Z,12.10
2023-01-19T09:10:51.547Z,17.60
2023-01-19T09:13:53.068Z,12.25
2023-01-19T09:16:56.165Z,11.53
2023-01-19T09:19:58.408Z,12.10
2023-01-19T09:23:00.365Z,10.93
2023-01-19T09:26:03.619Z,12.57
2023-01-19T09:29:05.077Z,11.38
2023-01-19T09:32:06.575Z,13.03
2023-01-19T09:35:08.419Z,12.63
2023-01-19T09:38:11.011Z,10.23
2023-01-19T09:41:21.345Z,11.00
2023-01-19T09:44:31.809Z,11.00
2023-01-19T09:47:36.746Z,10.85
2023-01-19T09:50:46.586Z,12.25
2023-01-19T09:54:05.118Z,13.50
2023-01-19T09:57:11.548Z,14.45
2023-01-19T10:00:24.285Z,13.40
2023-01-19T10:03:25.746Z,11.43
2023-01-19T10:06:27.831Z,9.70
2023-01-19T10:09:53.408Z,11.93
2023-01-19T10:13:34.390Z,10.80
2023-01-19T10:17:00.878Z,10.20
2023-01-19T10:20:04.780Z,10.40
2023-01-19T10:23:38.454Z,9.90
2023-01-19T10:26:52.755Z,10.60
2023-01-19T10:29:54.640Z,9.63
2023-01-19T10:32:56.156Z,8.73
2023-01-19T10:35:57.639Z,8.67
2023-01-19T10:38:59.193Z,9.00
2023-01-19T10:42:03.504Z,9.87
2023-01-19T10:45:29.284Z,8.63
2023-01-19T10:48:38.805Z,7.82
2023-01-19T10:51:48.940Z,8.85
2023-01-19T10:54:50.906Z,9.50
2023-01-19T10:57:53.597Z,9.90
2023-01-19T11:00:55.580Z,9.25
2023-01-19T11:04:05.436Z,10.10
2023-01-19T11:07:23.656Z,9.25
2023-01-19T11:10:26.489Z,9.00
2023-01-19T11:13:28.353Z,9.45
2023-01-19T11:16:34.720Z,9.85
2023-01-19T11:19:36.336Z,9.32
2023-01-19T11:22:37.909Z,8.67
2023-01-19T11:25:39.457Z,9.75
2023-01-19T11:28:45.713Z,9.67
2023-01-19T11:31:47.686Z,9.63
2023-01-19T11:34:49.955Z,10.93
2023-01-19T11:38:13.212Z,8.57
2023-01-19T11:41:23.746Z,10.18
2023-01-19T11:44:39.105Z,8.60
2023-01-19T11:47:52.579Z,8.65
2023-01-19T11:50:55.411Z,9.48
2023-01-19T11:53:56.971Z,8.27
2023-01-19T11:57:00.172Z,9.27
2023-01-19T12:00:17.597Z,8.60
2023-01-19T12:03:21.968Z,9.45
2023-01-19T12:06:29.551Z,9.90
2023-01-19T12:09:34.377Z,8.85
2023-01-19T12:12:39.969Z,9.93
2023-01-19T12:15:47.355Z,10.68
2023-01-19T12:19:07.420Z,9.63
2023-01-19T12:22:15.776Z,9.07
2023-01-19T12:25:24.879Z,10.07
2023-01-19T12:28:31.679Z,10.30
2023-01-19T12:31:33.719Z,9.77
2023-01-19T12:34:47.644Z,9.90
2023-01-19T12:37:49.103Z,8.35
2023-01-19T12:40:50.595Z,9.63
2023-01-19T12:44:16.560Z,9.05
2023-01-19T12:47:20.968Z,10.27
2023-01-19T12:50:25.876Z,9.93
2023-01-19T12:53:27.601Z,9.07
2023-01-19T12:56:31.141Z,10.27
2023-01-19T12:59:36.733Z,9.30
2023-01-19T13:02:47.453Z,9.05
2023-01-19T13:05:55.089Z,8.73
2023-01-19T13:09:00.040Z,9.40
2023-01-19T13:12:19.632Z,9.02
2023-01-19T13:15:36.574Z,8.65
2023-01-19T13:18:41.624Z,8.35
2023-01-19T13:21:48.455Z,9.20
2023-01-19T13:25:13.083Z,9.65
2023-01-19T13:28:17.817Z,8.57
2023-01-19T13:31:20.353Z,9.75
2023-01-19T13:34:27.787Z,11.32
2023-01-19T13:37:38.913Z,9.30
2023-01-19T13:40:40.775Z,8.48
2023-01-19T13:43:43.131Z,8.90
2023-01-19T13:46:46.133Z,9.98
2023-01-19T13:49:50.965Z,9.70
2023-01-19T13:52:55.412Z,8.77
2023-01-19T13:56:17.449Z,8.23
2023-01-19T13:59:18.876Z,8.80
2023-01-19T14:02:21.198Z,8.32
2023-01-19T14:08:32.808Z,9.23
2023-01-19T14:11:34.679Z,8.48
2023-01-19T14:14:36.266Z,8.20
2023-01-19T14:17:37.740Z,8.48
2023-01-19T14:20:39.533Z,8.10
2023-01-19T14:24:05.929Z,7.65
2023-01-19T14:27:18.153Z,7.95
2023-01-19T14:30:25.115Z,7.90
2023-01-19T14:33:43.609Z,7.85
2023-01-19T14:36:45.111Z,7.65
2023-01-19T14:40:12.865Z,7.30
2023-01-19T14:43:14.356Z,7.53
2023-01-19T14:46:20.625Z,7.70
2023-01-19T14:49:46.782Z,6.88
2023-01-19T14:53:01.900Z,8.52
2023-01-19T14:56:05.603Z,8.40
2023-01-19T14:59:10.843Z,7.45
2023-01-19T15:02:12.993Z,7.40
2023-01-19T15:05:14.670Z,7.25
2023-01-19T15:08:29.947Z,8.90
2023-01-19T15:11:33.767Z,9.02
2023-01-19T15:14:35.323Z,8.18
2023-01-19T15:17:37.063Z,11.03
2023-01-19T15:20:38.514Z,10.20
2023-01-19T15:23:40.209Z,9.83
2023-01-19T15:26:42.974Z,11.32
2023-01-19T15:29:45.106Z,10.25
2023-01-19T15:32:46.874Z,9.40
2023-01-19T15:35:49.162Z,11.38
2023-01-19T15:38:51.157Z,12.05
2023-01-19T15:41:52.897Z,14.23
2023-01-19T15:44:54.446Z,13.20
2023-01-19T15:47:55.970Z,11.40
2023-01-19T15:50:57.815Z,13.98
2023-01-19T15:53:59.424Z,14.98
2023-01-19T15:57:00.911Z,13.73
2023-01-19T16:00:04.707Z,12.17
2023-01-19T16:03:11.563Z,11.05
2023-01-19T16:06:14.040Z,10.50
2023-01-19T16:09:18.468Z,12.13
2023-01-19T16:12:19.965Z,12.88
2023-01-19T16:15:22.618Z,11.90
2023-01-19T16:18:24.133Z,11.23
2023-01-19T16:21:25.866Z,10.70
2023-01-19T16:24:27.356Z,9.80
2023-01-19T16:27:28.949Z,11.27
2023-01-19T16:30:30.778Z,11.33
2023-01-19T16:33:32.395Z,14.70
2023-01-19T16:36:36.252Z,14.10
2023-01-19T16:39:40.724Z,12.90
2023-01-19T16:42:42.483Z,12.30
2023-01-19T16:45:56.300Z,13.18
2023-01-19T16:49:06.338Z,11.80
2023-01-19T16:52:07.998Z,12.77
2023-01-19T16:55:11.251Z,13.03
2023-01-19T16:58:12.733Z,14.80
2023-01-19T17:01:20.198Z,16.43
2023-01-19T17:04:22.378Z,15.98
2023-01-19T17:07:23.838Z,13.65
2023-01-19T17:10:25.372Z,11.40
2023-01-19T17:13:26.821Z,10.97
2023-01-19T17:16:31.091Z,12.23
2023-01-19T17:19:32.679Z,12.32
2023-01-19T17:22:34.085Z,12.13
2023-01-19T17:25:36.785Z,11.75
2023-01-19T17:28:38.593Z,10.88
2023-01-19T17:31:40.546Z,11.18
2023-01-19T17:34:42.091Z,10.75
2023-01-19T17:37:43.623Z,12.77
2023-01-19T17:40:45.203Z,12.40
2023-01-19T17:43:47.279Z,11.90
2023-01-19T17:46:48.931Z,12.23
2023-01-19T17:49:50.395Z,11.77
2023-01-19T17:52:52.705Z,13.10
2023-01-19T17:55:54.418Z,11.73
2023-01-19T17:58:57.235Z,10.75
2023-01-19T18:01:59.006Z,11.35
2023-01-19T18:05:02.455Z,10.63
2023-01-19T18:08:04.547Z,10.25
2023-01-19T18:14:09.414Z,10.70
2023-01-19T18:17:11.480Z,11.02
2023-01-19T18:20:13.772Z,10.77
2023-01-19T18:23:15.786Z,10.60
2023-01-19T18:26:21.049Z,11.48
2023-01-19T18:29:23.170Z,11.10
2023-01-19T18:32:27.110Z,11.13
2023-01-19T18:35:29.166Z,11.95
2023-01-19T18:38:31.264Z,11.95
2023-01-19T18:41:34.046Z,11.75
2023-01-19T18:44:35.625Z,11.45
2023-01-19T18:47:37.268Z,13.27
2023-01-19T18:50:38.790Z,11.57
2023-01-19T18:53:40.681Z,11.37
2023-01-19T18:56:42.151Z,13.27
2023-01-19T18:59:43.978Z,12.27
2023-01-19T19:02:45.418Z,11.48
2023-01-19T19:05:47.459Z,10.88
2023-01-19T19:08:50.834Z,11.98
2023-01-19T19:11:52.435Z,11.80
2023-01-19T19:14:53.864Z,10.63
2023-01-19T19:17:55.326Z,11.57
2023-01-19T19:20:56.783Z,12.00
2023-01-19T19:23:58.318Z,11.57
2023-01-19T19:27:14.799Z,11.38
2023-01-19T19:30:16.573Z,10.43
2023-01-19T19:33:18.035Z,10.35
2023-01-19T19:36:21.233Z,11.75
2023-01-19T19:39:22.753Z,11.35
2023-01-19T19:42:24.789Z,11.07
2023-01-19T19:45:26.874Z,10.80
2023-01-19T19:48:28.711Z,12.82
2023-01-19T19:51:30.164Z,11.82
2023-01-19T19:54:31.637Z,10.90
2023-01-19T19:57:33.219Z,12.00
2023-01-19T20:00:34.757Z,10.50
2023-01-19T20:03:36.444Z,10.13
2023-01-19T20:06:44.630Z,11.10
2023-01-19T20:09:46.401Z,11.85
2023-01-19T20:12:47.876Z,12.07
2023-01-19T20:15:49.405Z,11.63
2023-01-19T20:18:53.907Z,13.37
2023-01-19T20:21:55.575Z,11.95
2023-01-19T20:24:57.223Z,11.75
2023-01-19T20:27:59.381Z,14.07
2023-01-19T20:31:11.833Z,14.00
2023-01-19T20:34:16.151Z,13.43
2023-01-19T20:37:17.856Z,13.20
2023-01-19T20:40:19.615Z,12.88
2023-01-19T20:43:21.168Z,14.57
2023-01-19T20:46:22.630Z,13.38
2023-01-19T20:49:24.506Z,13.63
2023-01-19T20:52:26.073Z,13.63
2023-01-19T20:55:27.909Z,16.58
2023-01-19T20:58:31.230Z,15.68
2023-01-19T21:01:32.760Z,19.65
2023-01-19T21:04:34.280Z,17.47
2023-01-19T21:07:35.800Z,16.83
2023-01-19T21:10:37.371Z,16.77
2023-01-19T21:13:38.959Z,15.20
2023-01-19T21:16:42.509Z,13.35
2023-01-19T21:19:44.037Z,13.90
2023-01-19T21:22:45.580Z,13.93
2023-01-19T21:25:51.024Z,13.73
2023-01-19T21:28:52.481Z,12.18
2023-01-19T21:31:54.191Z,13.67
2023-01-19T21:34:55.734Z,13.65
2023-01-19T21:37:58.139Z,13.33
2023-01-19T21:44:06.066Z,12.32
2023-01-19T21:47:09.708Z,12.57
2023-01-19T21:50:11.346Z,11.98
2023-01-19T21:53:12.894Z,12.27
2023-01-19T21:56:16.710Z,11.40
2023-01-19T21:59:20.330Z,11.43
2023-01-19T22:02:37.645Z,11.73
2023-01-19T22:05:39.876Z,12.70
2023-01-19T22:08:41.819Z,13.70
2023-01-19T22:11:43.302Z,18.45
2023-01-19T22:14:44.871Z,15.23
2023-01-19T22:17:46.348Z,11.70
2023-01-19T22:20:47.745Z,11.00
2023-01-19T22:23:50.684Z,11.25
2023-01-19T22:26:52.179Z,11.93
2023-01-19T22:29:53.956Z,12.40
2023-01-19T22:32:55.557Z,13.15
2023-01-19T22:36:09.870Z,13.40
2023-01-19T22:39:12.933Z,12.95
2023-01-19T22:42:14.399Z,13.02
2023-01-19T22:45:16.128Z,13.97
2023-01-19T22:48:17.570Z,13.52
2023-01-19T22:51:20.626Z,13.30
2023-01-19T22:54:23.133Z,13.85
2023-01-19T22:57:24.812Z,12.57
2023-01-19T23:00:26.551Z,11.98
2023-01-19T23:03:29.067Z,12.38
2023-01-19T23:09:34.219Z,12.00
2023-01-19T23:12:35.690Z,13.40
2023-01-19T23:15:37.216Z,13.03
2023-01-19T23:18:39.483Z,14.70
2023-01-19T23:21:41.003Z,13.07
2023-01-19T23:24:42.490Z,13.90
2023-01-19T23:27:43.980Z,14.37
2023-01-19T23:30:45.603Z,13.27
2023-01-19T23:33:47.119Z,12.82
2023-01-19T23:36:48.785Z,13.27
2023-01-19T23:39:50.209Z,12.68
2023-01-19T23:42:51.760Z,11.73
2023-01-19T23:45:53.247Z,11.93
2023-01-19T23:48:55.216Z,10.80
2023-01-19T23:51:59.165Z,11.57
2023-01-19T23:55:00.632Z,11.57
2023-01-19T23:58:02.173Z,11.43
